Time;durP1;ratioP1;P1;durP2;ratioP2;P2;SDS_P1;SDS_P2;PMS_P1;PMS_P2;Temp;Humidity;BMP_temperature;BMP_pressure;BME280_temperature;BME280_humidity;BME280_pressure;Samples;Min_cycle;Max_cycle;Signal;HPM_P1;HPM_P2
2021/08/24 00:01:41;;;;;;;11.25;5.13;;;19.30;97.10;;;;;;4257325;27;20331;-68
2021/08/24 00:03:45;;;;;;;18.40;6.40;;;19.20;97.40;;;;;;4256511;27;20129;-66
2021/08/24 00:05:48;;;;;;;18.33;6.03;;;19.20;97.40;;;;;;4256558;27;20055;-66
2021/08/24 00:07:56;;;;;;;21.85;7.05;;;19.20;97.40;;;;;;4256730;27;20043;-66
2021/08/24 00:10:00;;;;;;;18.65;6.78;;;19.00;97.90;;;;;;4256586;27;20070;-66
2021/08/24 00:12:05;;;;;;;20.15;6.18;;;19.10;97.70;;;;;;4256787;27;20077;-66
2021/08/24 00:14:09;;;;;;;17.92;6.55;;;19.30;97.20;;;;;;4256662;27;20051;-66
2021/08/24 00:16:17;;;;;;;20.17;6.05;;;19.30;97.40;;;;;;4256830;27;20059;-66
2021/08/24 00:18:21;;;;;;;14.55;7.20;;;19.30;97.30;;;;;;4256866;27;20087;-67
2021/08/24 00:20:30;;;;;;;25.77;7.37;;;19.20;97.90;;;;;;4257772;27;20073;-67
2021/08/24 00:22:35;;;;;;;21.60;7.40;;;19.00;98.30;;;;;;4257413;27;20051;-67
2021/08/24 00:24:39;;;;;;;17.52;7.53;;;19.00;98.30;;;;;;4257459;27;20388;-67
2021/08/24 00:26:42;;;;;;;21.30;7.45;;;19.10;98.30;;;;;;4256920;27;20061;-67
2021/08/24 00:28:45;;;;;;;16.50;7.13;;;19.10;98.00;;;;;;4255428;27;20331;-66
2021/08/24 00:30:48;;;;;;;19.45;7.97;;;19.00;98.50;;;;;;4256431;27;20678;-70
2021/08/24 00:32:51;;;;;;;20.02;8.00;;;19.10;98.30;;;;;;4258258;27;20108;-66
2021/08/24 00:34:54;;;;;;;20.33;8.35;;;18.90;98.60;;;;;;4257885;27;20051;-66
2021/08/24 00:36:57;;;;;;;27.27;8.30;;;19.00;98.50;;;;;;4256638;27;20054;-66
2021/08/24 00:39:01;;;;;;;18.20;7.95;;;19.00;98.70;;;;;;4256371;27;20092;-66
2021/08/24 00:41:05;;;;;;;16.55;7.82;;;19.00;98.90;;;;;;4256870;27;20051;-66
2021/08/24 00:43:09;;;;;;;21.73;8.10;;;19.00;98.90;;;;;;4238861;28;20047;-68
2021/08/24 00:45:14;;;;;;;26.25;9.57;;;19.00;98.60;;;;;;4255765;27;20047;-67
2021/08/24 00:47:20;;;;;;;22.25;8.48;;;18.90;98.90;;;;;;4257351;27;20375;-67
2021/08/24 00:49:26;;;;;;;21.38;8.82;;;18.90;99.20;;;;;;4256696;27;20051;-67
2021/08/24 00:51:32;;;;;;;21.85;8.27;;;18.90;98.90;;;;;;4256183;27;20051;-66
2021/08/24 00:53:36;;;;;;;25.90;9.05;;;18.90;98.90;;;;;;4256067;27;20051;-66
2021/08/24 00:55:43;;;;;;;27.27;8.90;;;18.90;99.20;;;;;;4256047;27;20055;-65
2021/08/24 00:57:56;;;;;;;25.25;9.02;;;18.70;99.60;;;;;;4255563;27;20104;-66
2021/08/24 00:59:59;;;;;;;20.90;8.23;;;18.80;99.30;;;;;;4255228;27;20316;-68
2021/08/24 01:02:02;;;;;;;20.02;8.48;;;18.90;99.20;;;;;;4255122;27;20109;-67
2021/08/24 01:04:06;;;;;;;20.08;9.13;;;19.00;98.90;;;;;;4255463;27;20327;-66
2021/08/24 01:06:21;;;;;;;20.00;8.20;;;19.00;98.90;;;;;;4257214;27;20059;-67
2021/08/24 01:08:34;;;;;;;18.40;9.20;;;19.10;98.80;;;;;;4258081;27;20055;-67
2021/08/24 01:10:42;;;;;;;20.85;8.90;;;19.10;98.50;;;;;;4257516;27;20067;-67
2021/08/24 01:12:53;;;;;;;15.38;8.05;;;19.10;98.60;;;;;;4257556;27;20074;-66
2021/08/24 01:15:04;;;;;;;18.92;8.88;;;19.10;98.80;;;;;;4256401;27;20335;-67
2021/08/24 01:17:13;;;;;;;19.15;9.23;;;19.10;98.90;;;;;;4256609;27;20051;-67
2021/08/24 01:19:45;;;;;;;18.13;8.50;;;18.90;99.00;;;;;;4256552;27;20239;-68
2021/08/24 01:22:13;;;;;;;19.35;9.27;;;19.00;99.00;;;;;;4241853;28;20043;-67
2021/08/24 01:24:22;;;;;;;16.80;8.60;;;18.90;99.10;;;;;;4240008;27;20285;-71
2021/08/24 01:26:37;;;;;;;20.20;9.52;;;19.10;98.80;;;;;;4258005;27;20051;-66
2021/08/24 01:28:55;;;;;;;30.55;9.50;;;18.90;99.00;;;;;;4259265;27;20059;-66
2021/08/24 01:31:17;;;;;;;22.85;9.43;;;18.90;99.40;;;;;;4261142;28;20055;-67
2021/08/24 01:33:28;;;;;;;19.38;9.52;;;18.90;99.40;;;;;;4259469;27;20063;-66
2021/08/24 01:36:10;;;;;;;22.80;9.73;;;19.00;99.10;;;;;;4258824;27;20062;-68
2021/08/24 01:38:18;;;;;;;21.25;10.15;;;19.00;98.90;;;;;;4256161;28;20057;-66
2021/08/24 01:40:26;;;;;;;25.30;10.48;;;18.70;99.90;;;;;;4255311;28;20055;-66
2021/08/24 01:42:31;;;;;;;24.23;9.85;;;18.70;99.90;;;;;;4255339;28;20166;-66
2021/08/24 01:44:43;;;;;;;23.33;9.93;;;18.70;99.90;;;;;;4255178;28;20104;-66
2021/08/24 01:46:53;;;;;;;26.02;10.65;;;18.80;99.60;;;;;;4255722;28;20055;-66
2021/08/24 01:49:00;;;;;;;21.90;10.55;;;18.70;99.90;;;;;;4257040;28;20051;-66
2021/08/24 01:51:12;;;;;;;30.58;11.25;;;18.70;99.90;;;;;;4256745;28;20051;-66
2021/08/24 01:53:19;;;;;;;25.40;9.57;;;18.80;99.80;;;;;;4255545;28;20043;-66
2021/08/24 01:55:24;;;;;;;23.52;11.02;;;18.70;99.90;;;;;;4257274;28;20068;-67
2021/08/24 01:57:32;;;;;;;;;;;18.70;99.90;;;;;;4260808;28;20043;-70
2021/08/24 01:59:40;;;;;;;29.73;11.73;;;18.70;99.90;;;;;;4242419;28;19916;-66
2021/08/24 02:01:49;;;;;;;24.33;11.80;;;18.80;99.90;;;;;;4257222;28;20047;-66
2021/08/24 02:03:55;;;;;;;26.00;11.30;;;18.70;99.90;;;;;;4256448;28;20335;-66
2021/08/24 02:06:03;;;;;;;27.30;11.60;;;18.70;99.90;;;;;;4255787;28;20055;-66
2021/08/24 02:08:13;;;;;;;22.75;11.32;;;18.70;99.90;;;;;;4255335;28;20051;-67
2021/08/24 02:10:19;;;;;;;24.85;11.68;;;18.70;99.90;;;;;;4239121;28;20073;-66
2021/08/24 02:12:24;;;;;;;20.40;10.88;;;18.70;99.90;;;;;;4258917;27;20059;-66
2021/08/24 02:14:28;;;;;;;;;;;18.70;99.90;;;;;;4259348;27;20285;-67
2021/08/24 02:16:32;;;;;;;29.33;12.50;;;18.60;99.90;;;;;;4258955;27;19972;-66
2021/08/24 02:18:39;;;;;;;23.30;11.20;;;18.60;99.90;;;;;;4258713;27;20051;-67
2021/08/24 02:20:48;;;;;;;22.48;12.45;;;18.70;99.90;;;;;;4258400;27;20051;-66
2021/08/24 02:22:56;;;;;;;30.02;12.82;;;18.70;99.90;;;;;;4257982;27;20054;-67
2021/08/24 02:25:07;;;;;;;28.25;12.75;;;18.70;99.90;;;;;;4258493;27;20076;-67
2021/08/24 02:27:17;;;;;;;23.85;11.98;;;18.80;99.90;;;;;;4259920;27;20043;-69
2021/08/24 02:29:20;;;;;;;23.42;11.82;;;18.70;99.90;;;;;;4259355;27;20051;-68
2021/08/24 02:31:29;;;;;;;32.90;12.60;;;18.80;99.90;;;;;;4258604;27;20063;-69
2021/08/24 02:33:38;;;;;;;27.83;11.82;;;18.70;99.90;;;;;;4258234;27;20285;-68
2021/08/24 02:35:48;;;;;;;22.25;11.55;;;18.70;99.90;;;;;;4258033;27;20047;-68
2021/08/24 02:37:54;;;;;;;28.95;13.77;;;18.70;99.90;;;;;;4258308;27;20043;-66
2021/08/24 02:40:08;;;;;;;26.98;12.65;;;18.80;99.90;;;;;;4239791;28;20051;-66
2021/08/24 02:42:16;;;;;;;32.47;13.30;;;18.80;99.90;;;;;;4239779;28;20067;-66
2021/08/24 02:44:22;;;;;;;29.77;12.88;;;18.90;99.90;;;;;;4258105;27;20392;-66
2021/08/24 02:46:28;;;;;;;25.98;12.40;;;18.90;99.90;;;;;;4257977;27;20051;-66
2021/08/24 02:48:38;;;;;;;25.48;12.68;;;19.00;99.50;;;;;;4258342;27;20116;-66
2021/08/24 02:50:41;;;;;;;29.60;12.68;;;19.10;99.60;;;;;;4258280;27;20092;-65
2021/08/24 02:52:45;;;;;;;28.15;13.50;;;19.10;99.60;;;;;;4265556;27;20076;-66
2021/08/24 02:54:51;;;;;;;23.35;13.68;;;19.10;99.80;;;;;;4263183;27;20047;-67
2021/08/24 02:56:56;;;;;;;25.85;12.27;;;19.10;99.70;;;;;;4259657;27;20331;-66
2021/08/24 02:58:58;;;;;;;;;;;19.10;99.50;;;;;;4261054;27;20224;-69
2021/08/24 03:01:01;;;;;;;27.38;13.15;;;19.10;99.80;;;;;;4261883;27;19919;-67
2021/08/24 03:03:04;;;;;;;28.73;15.13;;;19.10;99.90;;;;;;4261781;27;20054;-66
2021/08/24 03:05:09;;;;;;;25.75;15.40;;;19.00;99.90;;;;;;4261107;27;20051;-66
2021/08/24 03:07:15;;;;;;;27.60;15.25;;;19.00;99.90;;;;;;4260500;27;20058;-69
2021/08/24 03:09:20;;;;;;;24.83;16.33;;;18.80;99.90;;;;;;4257853;27;20380;-69
2021/08/24 03:11:28;;;;;;;29.45;17.00;;;18.90;99.90;;;;;;4258244;27;20123;-69
2021/08/24 03:13:42;;;;;;;30.20;18.20;;;18.90;99.90;;;;;;4257963;27;20132;-68
2021/08/24 03:15:52;;;;;;;27.10;17.60;;;18.70;99.90;;;;;;4258514;27;20108;-68
2021/08/24 03:17:58;;;;;;;36.20;19.73;;;18.80;99.90;;;;;;4259466;27;20276;-68
2021/08/24 03:20:05;;;;;;;29.75;18.52;;;18.90;99.90;;;;;;4260374;27;20047;-67
2021/08/24 03:22:10;;;;;;;31.85;21.73;;;18.80;99.90;;;;;;4258789;27;20059;-66
2021/08/24 03:24:16;;;;;;;33.60;19.92;;;18.60;99.90;;;;;;4259075;27;20051;-68
2021/08/24 03:26:23;;;;;;;30.00;20.23;;;18.70;99.90;;;;;;4240695;28;20051;-66
2021/08/24 03:28:26;;;;;;;32.72;22.17;;;18.70;99.90;;;;;;4258274;27;20351;-68
2021/08/24 03:30:37;;;;;;;36.47;21.52;;;18.60;99.90;;;;;;4257144;27;20046;-66
2021/08/24 03:32:41;;;;;;;31.15;20.98;;;18.60;99.90;;;;;;4256956;27;20047;-67
2021/08/24 03:34:44;;;;;;;38.75;23.70;;;18.60;99.90;;;;;;4257285;27;20051;-66
2021/08/24 03:36:47;;;;;;;31.98;25.05;;;18.40;99.90;;;;;;4256971;27;20051;-67
2021/08/24 03:38:50;;;;;;;37.17;22.55;;;18.30;99.90;;;;;;4257126;27;20055;-68
2021/08/24 03:40:53;;;;;;;36.03;24.10;;;18.40;99.90;;;;;;4257169;27;20277;-66
2021/08/24 03:42:56;;;;;;;35.38;23.95;;;18.50;99.90;;;;;;4257969;27;20051;-67
2021/08/24 03:44:59;;;;;;;29.42;21.90;;;18.60;99.90;;;;;;4258169;27;20118;-66
2021/08/24 03:47:04;;;;;;;32.60;23.17;;;18.70;99.90;;;;;;4257714;27;20339;-67
2021/08/24 03:49:07;;;;;;;33.85;22.98;;;18.80;99.90;;;;;;4257017;27;20285;-66
2021/08/24 03:51:10;;;;;;;33.17;23.48;;;18.70;99.90;;;;;;4256976;27;20046;-66
2021/08/24 03:53:13;;;;;;;33.50;23.15;;;18.70;99.90;;;;;;4256956;27;20132;-66
2021/08/24 03:55:17;;;;;;;33.42;22.48;;;18.70;99.90;;;;;;4257114;27;20055;-66
2021/08/24 03:57:20;;;;;;;36.50;23.42;;;18.70;99.90;;;;;;4256982;27;20051;-66
2021/08/24 03:59:22;;;;;;;35.13;24.80;;;18.80;99.90;;;;;;4256743;27;20285;-66
2021/08/24 04:01:25;;;;;;;33.10;25.30;;;18.70;99.90;;;;;;4256785;27;20051;-66
2021/08/24 04:03:30;;;;;;;33.30;22.77;;;18.80;99.90;;;;;;4256636;27;20054;-66
2021/08/24 04:05:33;;;;;;;33.58;23.85;;;18.90;99.90;;;;;;4256748;27;20324;-66
2021/08/24 04:07:36;;;;;;;35.00;24.73;;;19.00;99.90;;;;;;4238971;28;20059;-66
2021/08/24 04:09:39;;;;;;;38.38;23.65;;;18.90;99.90;;;;;;4256781;27;20047;-66
2021/08/24 04:11:42;;;;;;;36.88;25.63;;;18.90;99.90;;;;;;4256790;27;20054;-66
2021/08/24 04:13:46;;;;;;;33.45;24.63;;;18.90;99.90;;;;;;4256893;27;20154;-66
2021/08/24 04:15:49;;;;;;;33.88;24.73;;;18.80;99.90;;;;;;4256517;27;20092;-67
2021/08/24 04:17:52;;;;;;;31.83;26.23;;;18.70;99.90;;;;;;4256402;27;20051;-66
2021/08/24 04:19:58;;;;;;;34.40;25.95;;;18.50;99.90;;;;;;4256526;27;20047;-66
2021/08/24 04:22:01;;;;;;;36.20;26.77;;;18.40;99.90;;;;;;4239047;28;20048;-66
2021/08/24 04:24:04;;;;;;;31.88;24.95;;;18.30;99.90;;;;;;4257089;27;20095;-66
2021/08/24 04:26:08;;;;;;;32.10;25.60;;;18.40;99.90;;;;;;4256252;27;20051;-66
2021/08/24 04:28:10;;;;;;;35.88;26.42;;;18.40;99.90;;;;;;4256313;27;20059;-66
2021/08/24 04:30:14;;;;;;;39.40;26.33;;;18.30;99.90;;;;;;4256090;27;20417;-66
2021/08/24 04:32:23;;;;;;;32.80;25.50;;;18.40;99.90;;;;;;4255591;27;20076;-66
2021/08/24 04:34:26;;;;;;;35.55;27.10;;;18.40;99.90;;;;;;4256276;27;20051;-67
2021/08/24 04:36:30;;;;;;;43.70;28.08;;;18.30;99.90;;;;;;4256092;27;20281;-66
2021/08/24 04:38:34;;;;;;;36.15;26.00;;;18.30;99.90;;;;;;4237881;28;20052;-66
2021/08/24 04:40:37;;;;;;;36.50;25.50;;;18.30;99.90;;;;;;4256203;27;20051;-67
2021/08/24 04:42:40;;;;;;;35.85;26.17;;;18.30;99.90;;;;;;4257147;27;20536;-66
2021/08/24 04:44:43;;;;;;;37.08;24.73;;;18.30;99.90;;;;;;4258735;27;20224;-66
2021/08/24 04:46:46;;;;;;;36.65;25.42;;;18.50;99.90;;;;;;4256578;27;20046;-68
2021/08/24 04:48:49;;;;;;;31.88;25.65;;;18.50;99.90;;;;;;4256795;27;20340;-67
2021/08/24 04:50:52;;;;;;;35.15;24.73;;;18.50;99.90;;;;;;4256972;27;20054;-67
2021/08/24 04:52:56;;;;;;;34.28;26.48;;;18.50;99.90;;;;;;4256621;27;20054;-66
2021/08/24 04:54:59;;;;;;;36.78;25.13;;;18.50;99.90;;;;;;4256664;27;20076;-66
2021/08/24 04:57:03;;;;;;;36.60;24.58;;;18.40;99.90;;;;;;4237950;28;20397;-67
2021/08/24 04:59:06;;;;;;;35.40;24.45;;;18.40;99.90;;;;;;4255922;27;20335;-66
2021/08/24 05:01:09;;;;;;;39.35;25.48;;;18.50;99.90;;;;;;4256574;27;20051;-67
2021/08/24 05:03:12;;;;;;;37.05;25.38;;;18.60;99.90;;;;;;4256446;27;20070;-67
2021/08/24 05:05:16;;;;;;;33.78;25.25;;;18.60;99.90;;;;;;4256023;27;20077;-66
2021/08/24 05:07:19;;;;;;;30.02;20.38;;;18.70;99.90;;;;;;4255543;27;20343;-67
2021/08/24 05:09:24;;;;;;;40.42;24.70;;;18.80;99.90;;;;;;4255859;27;20108;-67
2021/08/24 05:11:27;;;;;;;37.85;26.67;;;18.70;99.90;;;;;;4256038;27;20328;-66
2021/08/24 05:13:30;;;;;;;38.03;22.73;;;18.80;99.90;;;;;;4255489;27;20246;-66
2021/08/24 05:15:33;;;;;;;42.00;23.27;;;18.90;99.90;;;;;;4255430;27;20050;-66
2021/08/24 05:17:36;;;;;;;37.63;23.17;;;18.80;99.90;;;;;;4256116;27;20051;-69
2021/08/24 05:19:39;;;;;;;35.90;22.23;;;18.80;99.90;;;;;;4257637;27;20375;-66
2021/08/24 05:21:42;;;;;;;34.88;20.85;;;18.70;99.90;;;;;;4258202;27;20335;-67
2021/08/24 05:23:46;;;;;;;30.85;20.13;;;18.70;99.90;;;;;;4258515;27;20051;-68
2021/08/24 05:25:50;;;;;;;30.83;20.35;;;18.70;99.90;;;;;;4262866;27;20051;-67
2021/08/24 05:27:53;;;;;;;28.20;18.88;;;18.50;99.90;;;;;;4261840;27;20057;-66
2021/08/24 05:30:00;;;;;;;33.30;20.73;;;18.50;99.90;;;;;;4261801;27;20236;-66
2021/08/24 05:32:04;;;;;;;39.38;20.08;;;18.50;99.90;;;;;;4260159;27;20055;-69
2021/08/24 05:34:07;;;;;;;30.52;16.75;;;18.50;99.90;;;;;;4256837;27;20051;-68
2021/08/24 05:36:11;;;;;;;37.15;19.95;;;18.60;99.90;;;;;;4256178;27;20235;-66
2021/08/24 05:38:15;;;;;;;37.80;20.08;;;18.70;99.90;;;;;;4256113;27;20104;-66
2021/08/24 05:40:18;;;;;;;29.45;17.70;;;18.60;99.90;;;;;;4257580;28;20051;-67
2021/08/24 05:42:23;;;;;;;33.20;17.25;;;18.70;99.90;;;;;;4256397;28;20114;-67
2021/08/24 05:44:25;;;;;;;29.80;17.15;;;18.80;99.90;;;;;;4255786;27;20051;-67
2021/08/24 05:46:28;;;;;;;32.78;18.10;;;18.50;99.90;;;;;;4258986;27;20051;-66
2021/08/24 05:48:32;;;;;;;26.92;17.75;;;18.50;99.90;;;;;;4258670;27;20059;-66
2021/08/24 05:50:36;;;;;;;31.88;17.40;;;18.40;99.90;;;;;;4241050;27;20096;-67
2021/08/24 05:52:40;;;;;;;30.60;17.50;;;18.50;99.90;;;;;;4241223;27;20317;-69
2021/08/24 05:54:43;;;;;;;27.92;17.60;;;18.60;99.90;;;;;;4258995;27;20293;-70
2021/08/24 05:56:48;;;;;;;31.58;17.15;;;18.60;99.90;;;;;;4259417;27;20055;-66
2021/08/24 05:58:53;;;;;;;25.20;16.52;;;18.60;99.90;;;;;;4260167;27;20070;-68
2021/08/24 06:00:56;;;;;;;27.65;16.58;;;18.50;99.90;;;;;;4259451;27;20277;-67
2021/08/24 06:02:59;;;;;;;35.83;17.83;;;18.60;99.90;;;;;;4259791;27;20080;-69
2021/08/24 06:05:02;;;;;;;29.63;17.13;;;18.60;99.90;;;;;;4262908;27;20043;-67
2021/08/24 06:07:06;;;;;;;30.73;17.42;;;18.50;99.90;;;;;;4268999;27;20051;-65
2021/08/24 06:09:11;;;;;;;30.80;17.50;;;18.40;99.90;;;;;;4274837;27;20107;-68
2021/08/24 06:11:19;;;;;;;24.83;16.40;;;18.50;99.90;;;;;;4257551;27;20047;-66
2021/08/24 06:13:22;;;;;;;23.25;17.02;;;18.50;99.90;;;;;;4274909;27;20115;-67
2021/08/24 06:15:29;;;;;;;29.85;17.75;;;18.50;99.90;;;;;;4275146;27;20051;-66
2021/08/24 06:17:32;;;;;;;24.83;16.63;;;18.50;99.90;;;;;;4276504;27;20051;-67
2021/08/24 06:19:35;;;;;;;33.47;17.08;;;18.50;99.90;;;;;;4277092;27;20053;-67
2021/08/24 06:21:39;;;;;;;27.40;16.17;;;18.50;99.90;;;;;;4275723;27;20050;-67
2021/08/24 06:23:43;;;;;;;30.60;17.35;;;18.60;99.90;;;;;;4277535;27;20054;-68
2021/08/24 06:25:46;;;;;;;37.80;17.52;;;18.40;99.90;;;;;;4278348;27;20064;-67
2021/08/24 06:27:49;;;;;;;27.48;17.65;;;18.40;99.90;;;;;;4275823;27;20076;-69
2021/08/24 06:29:53;;;;;;;32.05;16.77;;;18.40;99.90;;;;;;4275253;27;20099;-67
2021/08/24 06:32:00;;;;;;;25.60;16.00;;;18.40;99.90;;;;;;4274907;27;20100;-66
2021/08/24 06:34:02;;;;;;;24.10;17.10;;;18.40;99.90;;;;;;4275191;27;20051;-66
2021/08/24 06:36:06;;;;;;;34.65;16.67;;;18.30;99.90;;;;;;4274874;27;20055;-66
2021/08/24 06:38:09;;;;;;;28.13;16.35;;;18.40;99.90;;;;;;4275032;27;20290;-66
2021/08/24 06:40:14;;;;;;;25.40;16.75;;;18.40;99.90;;;;;;4275108;27;20055;-66
2021/08/24 06:42:19;;;;;;;25.85;16.65;;;18.40;99.90;;;;;;4274962;27;20053;-67
2021/08/24 06:44:22;;;;;;;29.00;16.80;;;18.10;99.90;;;;;;4275232;27;20334;-67
2021/08/24 06:46:25;;;;;;;31.08;16.80;;;18.20;99.90;;;;;;4275310;27;20055;-71
2021/08/24 06:48:29;;;;;;;32.30;16.88;;;18.10;99.90;;;;;;4275004;27;20100;-66
2021/08/24 06:50:33;;;;;;;35.10;17.17;;;18.20;99.90;;;;;;4275334;27;20272;-68
2021/08/24 06:52:38;;;;;;;23.30;16.35;;;18.10;99.90;;;;;;4276268;27;20050;-68
2021/08/24 06:54:41;;;;;;;27.33;16.73;;;18.20;99.90;;;;;;4276139;27;20069;-66
2021/08/24 06:56:44;;;;;;;25.70;16.88;;;18.20;99.90;;;;;;4275837;27;20143;-66
2021/08/24 06:58:47;;;;;;;37.90;17.00;;;18.20;99.90;;;;;;4257672;27;20499;-67
2021/08/24 07:00:50;;;;;;;25.77;16.33;;;18.20;99.90;;;;;;4275101;27;20095;-67
2021/08/24 07:02:54;;;;;;;31.35;17.13;;;18.30;99.90;;;;;;4275037;27;20113;-67
2021/08/24 07:05:04;;;;;;;27.97;17.63;;;18.20;99.90;;;;;;4274985;27;20057;-71
2021/08/24 07:07:07;;;;;;;29.92;17.48;;;18.40;99.90;;;;;;4274891;27;20055;-66
2021/08/24 07:09:10;;;;;;;24.98;16.17;;;18.30;99.90;;;;;;4274817;27;20099;-66
2021/08/24 07:11:13;;;;;;;26.35;16.40;;;18.30;99.90;;;;;;4275267;27;20054;-68
2021/08/24 07:13:17;;;;;;;27.55;16.80;;;18.30;99.90;;;;;;4274870;27;20046;-68
2021/08/24 07:15:22;;;;;;;28.98;16.65;;;18.40;99.90;;;;;;4274754;27;20266;-66
2021/08/24 07:17:25;;;;;;;24.42;15.50;;;18.40;99.90;;;;;;4275447;27;20043;-68
2021/08/24 07:19:28;;;;;;;25.45;15.90;;;18.60;99.90;;;;;;4275958;27;20058;-69
2021/08/24 07:21:32;;;;;;;24.05;15.32;;;18.70;99.90;;;;;;4275473;27;20075;-67
2021/08/24 07:23:35;;;;;;;29.58;15.90;;;18.80;99.90;;;;;;4276804;27;20058;-66
2021/08/24 07:25:38;;;;;;;24.48;16.35;;;18.90;99.90;;;;;;4275951;27;20091;-69
2021/08/24 07:27:41;;;;;;;30.05;15.93;;;18.90;99.90;;;;;;4276903;27;20076;-67
2021/08/24 07:29:44;;;;;;;26.17;15.20;;;19.00;99.90;;;;;;4275503;27;20058;-69
2021/08/24 07:31:47;;;;;;;23.48;14.77;;;18.90;99.90;;;;;;4274965;27;20050;-68
2021/08/24 07:33:51;;;;;;;20.40;14.52;;;19.00;99.90;;;;;;4274631;27;20392;-70
2021/08/24 07:35:53;;;;;;;25.10;14.68;;;18.90;99.90;;;;;;4275273;27;20051;-68
2021/08/24 07:37:58;;;;;;;22.35;13.70;;;18.90;99.90;;;;;;4275765;27;20047;-69
2021/08/24 07:40:01;;;;;;;24.45;14.02;;;18.90;99.90;;;;;;4276077;27;20265;-67
2021/08/24 07:42:04;;;;;;;19.80;13.02;;;19.00;99.90;;;;;;4276055;27;20099;-66
2021/08/24 07:44:08;;;;;;;27.63;13.48;;;19.20;99.90;;;;;;4275643;27;20076;-67
2021/08/24 07:46:11;;;;;;;21.67;12.70;;;19.30;99.90;;;;;;4274741;27;20050;-66
2021/08/24 07:48:14;;;;;;;19.40;14.50;;;19.30;99.90;;;;;;4275771;27;20158;-67
2021/08/24 07:50:17;;;;;;;20.55;12.73;;;19.30;99.90;;;;;;4275820;27;20051;-66
2021/08/24 07:52:20;;;;;;;20.90;13.27;;;19.30;99.90;;;;;;4275488;27;20054;-66
2021/08/24 07:54:24;;;;;;;20.50;12.23;;;19.10;99.90;;;;;;4275113;27;20046;-66
2021/08/24 07:56:27;;;;;;;22.05;12.95;;;19.40;99.90;;;;;;4274953;27;20054;-67
2021/08/24 07:58:30;;;;;;;30.10;13.30;;;19.50;99.80;;;;;;4276706;27;20448;-68
2021/08/24 08:00:33;;;;;;;19.88;12.50;;;19.50;99.70;;;;;;4275459;27;20374;-67
2021/08/24 08:02:36;;;;;;;18.55;12.40;;;19.50;99.60;;;;;;4276969;27;20096;-66
2021/08/24 08:04:41;;;;;;;;;;;19.60;99.30;;;;;;4278101;27;20103;-67
2021/08/24 08:06:44;;;;;;;22.42;11.98;;;19.80;99.10;;;;;;4277159;27;19915;-66
2021/08/24 08:08:47;;;;;;;20.25;11.43;;;19.90;98.90;;;;;;4274401;27;20264;-66
2021/08/24 08:10:56;;;;;;;18.92;10.43;;;20.00;98.50;;;;;;4274241;27;20058;-66
2021/08/24 08:13:02;;;;;;;23.15;10.93;;;20.10;98.60;;;;;;4274502;27;20103;-65
2021/08/24 08:15:07;;;;;;;25.92;11.77;;;20.30;98.20;;;;;;4276723;27;20050;-66
2021/08/24 08:17:10;;;;;;;;;;;20.30;98.10;;;;;;4277928;27;20051;-66
2021/08/24 08:19:13;;;;;;;20.08;10.38;;;20.00;97.60;;;;;;4274833;27;19915;-66
2021/08/24 08:21:17;;;;;;;15.32;9.65;;;20.10;97.90;;;;;;4274460;27;20110;-71
2021/08/24 08:23:21;;;;;;;12.15;8.82;;;20.30;97.70;;;;;;4274568;27;20054;-65
2021/08/24 08:25:24;;;;;;;14.77;9.52;;;20.40;97.30;;;;;;4273872;27;20047;-68
2021/08/24 08:27:28;;;;;;;15.43;9.57;;;20.30;97.50;;;;;;4274318;27;20395;-68
2021/08/24 08:29:31;;;;;;;19.20;9.55;;;20.30;97.50;;;;;;4274276;27;20058;-66
2021/08/24 08:31:35;;;;;;;17.88;8.55;;;20.40;97.10;;;;;;4274055;27;20269;-65
2021/08/24 08:33:38;;;;;;;12.35;8.45;;;20.60;97.30;;;;;;4273620;27;20100;-65
2021/08/24 08:35:41;;;;;;;20.88;8.05;;;20.70;96.70;;;;;;4273018;27;20051;-66
2021/08/24 08:37:45;;;;;;;19.05;8.55;;;20.90;96.60;;;;;;4273797;27;20573;-66
2021/08/24 08:39:51;;;;;;;13.68;7.32;;;21.00;95.90;;;;;;4273566;27;20047;-67
2021/08/24 08:42:10;;;;;;;18.67;8.32;;;21.10;95.70;;;;;;4273465;27;20063;-66
2021/08/24 08:44:25;;;;;;;18.45;6.70;;;21.20;95.40;;;;;;4272966;27;20284;-66
2021/08/24 08:46:40;;;;;;;11.77;7.72;;;21.20;95.20;;;;;;4273300;27;20066;-66
2021/08/24 08:48:48;;;;;;;;;;;21.20;94.70;;;;;;4273840;27;20276;-66
2021/08/24 08:50:54;;;;;;;17.67;8.02;;;21.20;94.70;;;;;;4273691;27;19922;-66
2021/08/24 08:53:04;;;;;;;20.48;7.43;;;21.10;94.70;;;;;;4276391;27;20043;-66
2021/08/24 08:55:14;;;;;;;16.65;6.65;;;21.30;95.00;;;;;;4278031;27;20047;-66
2021/08/24 08:57:23;;;;;;;13.38;6.60;;;21.90;94.00;;;;;;4276942;27;20038;-66
2021/08/24 08:59:32;;;;;;;12.90;6.13;;;23.00;91.80;;;;;;4256505;27;20051;-68
2021/08/24 09:01:39;;;;;;;13.73;6.13;;;23.30;90.20;;;;;;4273906;27;20050;-67
2021/08/24 09:03:50;;;;;;;10.88;5.60;;;23.00;88.80;;;;;;4274369;27;20062;-68
2021/08/24 09:05:56;;;;;;;11.20;5.65;;;22.60;89.80;;;;;;4273915;27;20054;-67
2021/08/24 09:08:00;;;;;;;12.52;6.38;;;22.50;90.70;;;;;;4273633;27;20356;-68
2021/08/24 09:10:05;;;;;;;14.15;6.13;;;22.20;91.20;;;;;;4273029;27;20051;-67
2021/08/24 09:12:09;;;;;;;14.98;6.25;;;22.10;91.10;;;;;;4272639;27;20091;-67
2021/08/24 09:14:18;;;;;;;7.60;5.25;;;22.00;91.40;;;;;;4272898;27;20099;-67
2021/08/24 09:16:29;;;;;;;12.23;5.47;;;22.20;91.80;;;;;;4273341;27;20051;-67
2021/08/24 09:18:44;;;;;;;18.67;5.07;;;22.10;91.20;;;;;;4272956;27;20107;-67
2021/08/24 09:20:58;;;;;;;10.80;5.28;;;22.10;91.10;;;;;;4273179;27;20232;-65
2021/08/24 09:23:02;;;;;;;11.68;4.80;;;22.10;90.90;;;;;;4273466;27;20088;-66
2021/08/24 09:25:10;;;;;;;8.80;5.05;;;22.00;90.20;;;;;;4273165;27;20445;-67
2021/08/24 09:27:19;;;;;;;12.05;4.28;;;22.00;90.80;;;;;;4272724;27;20110;-66
2021/08/24 09:29:25;;;;;;;9.35;4.68;;;22.30;90.80;;;;;;4255471;27;20517;-67
2021/08/24 09:31:29;;;;;;;7.90;4.57;;;22.40;90.10;;;;;;4274988;27;20378;-66
2021/08/24 09:33:33;;;;;;;15.02;4.43;;;22.20;89.80;;;;;;4273172;27;20047;-67
2021/08/24 09:35:38;;;;;;;13.43;4.07;;;22.30;89.90;;;;;;4272374;27;20046;-67
2021/08/24 09:37:41;;;;;;;14.70;4.05;;;22.40;88.40;;;;;;4272398;27;20051;-67
2021/08/24 09:39:56;;;;;;;17.20;4.25;;;22.30;87.20;;;;;;4272425;27;20050;-66
2021/08/24 09:42:06;;;;;;;13.18;3.92;;;22.40;87.90;;;;;;4272557;27;20050;-69
2021/08/24 09:44:24;;;;;;;13.82;4.03;;;22.50;86.80;;;;;;4272769;27;20051;-68
2021/08/24 09:46:36;;;;;;;18.55;3.83;;;22.40;84.70;;;;;;4280449;27;20051;-68
2021/08/24 09:48:52;;;;;;;14.18;4.18;;;22.30;84.20;;;;;;4273067;27;20230;-67
2021/08/24 09:51:17;;;;;;;20.58;4.22;;;22.50;84.80;;;;;;4272520;27;20080;-67
2021/08/24 09:53:30;;;;;;;19.52;3.83;;;22.50;84.00;;;;;;4272227;27;20062;-67
2021/08/24 09:55:47;;;;;;;9.98;3.65;;;22.50;84.20;;;;;;4272382;27;20051;-67
2021/08/24 09:57:54;;;;;;;15.98;4.43;;;22.60;82.80;;;;;;4272144;27;20095;-67
2021/08/24 10:00:01;;;;;;;24.25;3.83;;;22.50;81.00;;;;;;4272242;27;20050;-68
2021/08/24 10:02:07;;;;;;;11.82;3.65;;;22.60;80.10;;;;;;4272295;27;20084;-66
2021/08/24 10:04:11;;;;;;;16.38;3.58;;;22.70;81.00;;;;;;4272470;27;20062;-66
2021/08/24 10:06:23;;;;;;;6.85;3.40;;;22.80;81.20;;;;;;4273260;27;20051;-67
2021/08/24 10:08:31;;;;;;;12.05;3.47;;;22.80;81.20;;;;;;4275023;27;20335;-66
2021/08/24 10:10:37;;;;;;;7.53;3.05;;;22.90;82.00;;;;;;4273658;27;20115;-67
2021/08/24 10:12:40;;;;;;;14.60;3.60;;;23.00;80.30;;;;;;4272653;27;20047;-66
2021/08/24 10:14:43;;;;;;;10.75;4.15;;;23.00;80.00;;;;;;4272593;27;20281;-68
2021/08/24 10:16:49;;;;;;;16.88;3.95;;;23.00;79.90;;;;;;4272307;27;20051;-66
2021/08/24 10:19:07;;;;;;;5.43;3.50;;;23.30;79.70;;;;;;4272349;27;20087;-66
2021/08/24 10:21:13;;;;;;;6.72;3.67;;;23.40;78.60;;;;;;4272321;27;20395;-66
2021/08/24 10:23:24;;;;;;;5.78;3.00;;;23.30;77.70;;;;;;4272679;27;20043;-69
2021/08/24 10:25:33;;;;;;;9.18;3.30;;;23.00;76.20;;;;;;4272101;27;20046;-66
2021/08/24 10:27:43;;;;;;;12.07;3.25;;;23.10;75.30;;;;;;4273402;27;20335;-67
2021/08/24 10:29:51;;;;;;;10.52;2.75;;;23.10;73.50;;;;;;4272773;27;20099;-66
2021/08/24 10:31:58;;;;;;;10.48;3.10;;;23.10;74.40;;;;;;4276239;27;20150;-66
2021/08/24 10:34:05;;;;;;;15.23;3.42;;;23.10;73.90;;;;;;4276863;27;20047;-68
2021/08/24 10:36:14;;;;;;;16.65;2.83;;;23.10;74.00;;;;;;4276326;27;20264;-66
2021/08/24 10:38:17;;;;;;;17.63;3.58;;;23.20;73.70;;;;;;4275642;27;20106;-69
2021/08/24 10:40:28;;;;;;;6.57;2.90;;;23.50;74.10;;;;;;4275385;27;20051;-66
2021/08/24 10:42:31;;;;;;;6.45;3.13;;;23.80;74.40;;;;;;4275748;27;20095;-66
2021/08/24 10:44:43;;;;;;;11.65;3.13;;;23.80;73.20;;;;;;4277292;27;20050;-66